sensor_id;sensor_type;location;lat;lon;timestamp;P1;durP1;ratioP1;P2;durP2;ratioP2
24335;SDS011;33098;52.400;16.880;2023-03-01T00:01:52;98.90;;;48.90;;
24335;SDS011;33098;52.400;16.880;2023-03-01T00:04:19;91.10;;;47.80;;
24335;SDS011;33098;52.400;16.880;2023-03-01T00:06:49;90.90;;;47.60;;
24335;SDS011;33098;52.400;16.880;2023-03-01T00:09:16;95.80;;;47.50;;
24335;SDS011;33098;52.400;16.880;2023-03-01T00:11:43;92.80;;;45.40;;
24335;SDS011;33098;52.400;16.880;2023-03-01T00:14:11;96.10;;;46.60;;
24335;SDS011;33098;52.400;16.880;2023-03-01T00:16:42;87.70;;;45.30;;
24335;SDS011;33098;52.400;16.880;2023-03-01T00:19:14;92.10;;;46.60;;
24335;SDS011;33098;52.400;16.880;2023-03-01T00:21:53;96.30;;;46.60;;
24335;SDS011;33098;52.400;16.880;2023-03-01T00:24:23;99.40;;;48.50;;
24335;SDS011;33098;52.400;16.880;2023-03-01T00:26:52;100.30;;;47.80;;
24335;SDS011;33098;52.400;16.880;2023-03-01T00:29:22;97.30;;;49.20;;
24335;SDS011;33098;52.400;16.880;2023-03-01T00:31:54;96.90;;;49.10;;
24335;SDS011;33098;52.400;16.880;2023-03-01T00:34:24;96.90;;;49.10;;
24335;SDS011;33098;52.400;16.880;2023-03-01T00:36:54;77.00;;;37.80;;
24335;SDS011;33098;52.400;16.880;2023-03-01T00:39:21;104.30;;;50.10;;
24335;SDS011;33098;52.400;16.880;2023-03-01T00:41:53;110.20;;;51.00;;
24335;SDS011;33098;52.400;16.880;2023-03-01T00:44:23;105.40;;;51.20;;
24335;SDS011;33098;52.400;16.880;2023-03-01T00:46:51;103.40;;;49.50;;
24335;SDS011;33098;52.400;16.880;2023-03-01T00:49:20;104.80;;;49.90;;
24335;SDS011;33098;52.400;16.880;2023-03-01T00:54:24;114.00;;;51.30;;
24335;SDS011;33098;52.400;16.880;2023-03-01T00:56:51;117.10;;;52.80;;
24335;SDS011;33098;52.400;16.880;2023-03-01T00:59:18;115.90;;;53.60;;
24335;SDS011;33098;52.400;16.880;2023-03-01T01:01:48;101.80;;;50.20;;
24335;SDS011;33098;52.400;16.880;2023-03-01T01:04:18;110.40;;;52.80;;
24335;SDS011;33098;52.400;16.880;2023-03-01T01:06:52;111.70;;;52.20;;
24335;SDS011;33098;52.400;16.880;2023-03-01T01:09:22;110.90;;;53.20;;
24335;SDS011;33098;52.400;16.880;2023-03-01T01:11:54;115.10;;;51.60;;
24335;SDS011;33098;52.400;16.880;2023-03-01T01:14:21;107.80;;;50.70;;
24335;SDS011;33098;52.400;16.880;2023-03-01T01:16:53;104.10;;;50.50;;
24335;SDS011;33098;52.400;16.880;2023-03-01T01:19:20;102.80;;;51.60;;
24335;SDS011;33098;52.400;16.880;2023-03-01T01:21:48;116.00;;;52.10;;
24335;SDS011;33098;52.400;16.880;2023-03-01T01:24:15;109.90;;;50.60;;
24335;SDS011;33098;52.400;16.880;2023-03-01T01:26:44;98.60;;;49.60;;
24335;SDS011;33098;52.400;16.880;2023-03-01T01:29:15;113.40;;;52.40;;
24335;SDS011;33098;52.400;16.880;2023-03-01T01:31:43;113.30;;;53.20;;
24335;SDS011;33098;52.400;16.880;2023-03-01T01:34:14;101.60;;;50.40;;
24335;SDS011;33098;52.400;16.880;2023-03-01T01:36:46;109.70;;;50.90;;
24335;SDS011;33098;52.400;16.880;2023-03-01T01:39:16;107.30;;;52.20;;
24335;SDS011;33098;52.400;16.880;2023-03-01T01:41:46;111.80;;;53.50;;
24335;SDS011;33098;52.400;16.880;2023-03-01T01:44:24;102.90;;;49.50;;
24335;SDS011;33098;52.400;16.880;2023-03-01T01:46:56;104.60;;;49.30;;
24335;SDS011;33098;52.400;16.880;2023-03-01T01:49:56;105.30;;;50.60;;
24335;SDS011;33098;52.400;16.880;2023-03-01T01:52:34;107.80;;;52.30;;
24335;SDS011;33098;52.400;16.880;2023-03-01T01:55:04;103.20;;;50.60;;
24335;SDS011;33098;52.400;16.880;2023-03-01T01:57:40;109.90;;;50.30;;
24335;SDS011;33098;52.400;16.880;2023-03-01T02:00:12;104.00;;;52.10;;
24335;SDS011;33098;52.400;16.880;2023-03-01T02:02:46;104.40;;;50.30;;
24335;SDS011;33098;52.400;16.880;2023-03-01T02:08:28;109.90;;;51.20;;
24335;SDS011;33098;52.400;16.880;2023-03-01T02:11:07;107.40;;;50.60;;
24335;SDS011;33098;52.400;16.880;2023-03-01T02:13:46;103.60;;;49.70;;
24335;SDS011;33098;52.400;16.880;2023-03-01T02:16:19;103.10;;;48.90;;
24335;SDS011;33098;52.400;16.880;2023-03-01T02:18:52;111.50;;;52.50;;
24335;SDS011;33098;52.400;16.880;2023-03-01T02:24:19;109.70;;;51.40;;
24335;SDS011;33098;52.400;16.880;2023-03-01T02:26:56;116.10;;;51.20;;
24335;SDS011;33098;52.400;16.880;2023-03-01T02:31:55;107.10;;;49.80;;
24335;SDS011;33098;52.400;16.880;2023-03-01T02:34:29;95.80;;;48.00;;
24335;SDS011;33098;52.400;16.880;2023-03-01T02:37:04;101.60;;;49.80;;
24335;SDS011;33098;52.400;16.880;2023-03-01T02:39:39;99.90;;;48.00;;
24335;SDS011;33098;52.400;16.880;2023-03-01T02:42:12;96.30;;;46.70;;
24335;SDS011;33098;52.400;16.880;2023-03-01T02:44:44;91.70;;;44.40;;
24335;SDS011;33098;52.400;16.880;2023-03-01T02:47:14;92.80;;;46.40;;
24335;SDS011;33098;52.400;16.880;2023-03-01T02:49:45;98.00;;;46.70;;
24335;SDS011;33098;52.400;16.880;2023-03-01T02:55:16;94.90;;;45.10;;
24335;SDS011;33098;52.400;16.880;2023-03-01T02:57:45;84.20;;;43.30;;
24335;SDS011;33098;52.400;16.880;2023-03-01T03:00:21;95.80;;;43.80;;
24335;SDS011;33098;52.400;16.880;2023-03-01T03:02:54;84.50;;;41.80;;
24335;SDS011;33098;52.400;16.880;2023-03-01T03:05:27;88.80;;;42.20;;
24335;SDS011;33098;52.400;16.880;2023-03-01T03:07:58;92.00;;;43.30;;
24335;SDS011;33098;52.400;16.880;2023-03-01T03:10:30;84.60;;;42.00;;
24335;SDS011;33098;52.400;16.880;2023-03-01T03:13:03;89.40;;;42.10;;
24335;SDS011;33098;52.400;16.880;2023-03-01T03:15:32;85.80;;;41.80;;
24335;SDS011;33098;52.400;16.880;2023-03-01T03:18:08;87.30;;;43.00;;
24335;SDS011;33098;52.400;16.880;2023-03-01T03:20:38;86.90;;;43.50;;
24335;SDS011;33098;52.400;16.880;2023-03-01T03:23:06;90.50;;;42.70;;
24335;SDS011;33098;52.400;16.880;2023-03-01T03:25:34;84.90;;;41.20;;
24335;SDS011;33098;52.400;16.880;2023-03-01T03:28:04;87.00;;;43.40;;
24335;SDS011;33098;52.400;16.880;2023-03-01T03:30:36;82.60;;;41.90;;
24335;SDS011;33098;52.400;16.880;2023-03-01T03:33:10;87.90;;;43.90;;
24335;SDS011;33098;52.400;16.880;2023-03-01T03:35:44;90.30;;;42.30;;
24335;SDS011;33098;52.400;16.880;2023-03-01T03:38:17;88.10;;;44.20;;
24335;SDS011;33098;52.400;16.880;2023-03-01T03:40:59;84.20;;;43.40;;
24335;SDS011;33098;52.400;16.880;2023-03-01T03:43:29;88.80;;;42.70;;
24335;SDS011;33098;52.400;16.880;2023-03-01T03:45:59;88.80;;;43.70;;
24335;SDS011;33098;52.400;16.880;2023-03-01T03:48:29;78.90;;;41.10;;
24335;SDS011;33098;52.400;16.880;2023-03-01T03:50:56;83.80;;;42.70;;
24335;SDS011;33098;52.400;16.880;2023-03-01T03:53:24;85.20;;;43.20;;
24335;SDS011;33098;52.400;16.880;2023-03-01T03:55:52;87.20;;;42.90;;
24335;SDS011;33098;52.400;16.880;2023-03-01T03:58:24;87.00;;;44.10;;
24335;SDS011;33098;52.400;16.880;2023-03-01T04:00:55;109.20;;;49.20;;
24335;SDS011;33098;52.400;16.880;2023-03-01T04:03:25;96.60;;;48.20;;
24335;SDS011;33098;52.400;16.880;2023-03-01T04:05:57;109.70;;;50.90;;
24335;SDS011;33098;52.400;16.880;2023-03-01T04:08:25;113.30;;;50.30;;
24335;SDS011;33098;52.400;16.880;2023-03-01T04:10:57;110.90;;;50.40;;
24335;SDS011;33098;52.400;16.880;2023-03-01T04:13:26;102.20;;;49.30;;
24335;SDS011;33098;52.400;16.880;2023-03-01T04:15:54;107.90;;;49.60;;
24335;SDS011;33098;52.400;16.880;2023-03-01T04:18:21;106.50;;;49.60;;
24335;SDS011;33098;52.400;16.880;2023-03-01T04:20:50;105.00;;;48.50;;
24335;SDS011;33098;52.400;16.880;2023-03-01T04:23:19;104.10;;;48.30;;
24335;SDS011;33098;52.400;16.880;2023-03-01T04:25:50;95.80;;;48.60;;
24335;SDS011;33098;52.400;16.880;2023-03-01T04:28:24;95.40;;;46.70;;
24335;SDS011;33098;52.400;16.880;2023-03-01T04:30:52;91.10;;;45.30;;
24335;SDS011;33098;52.400;16.880;2023-03-01T04:33:21;96.60;;;46.60;;
24335;SDS011;33098;52.400;16.880;2023-03-01T04:35:56;89.50;;;44.10;;
24335;SDS011;33098;52.400;16.880;2023-03-01T04:38:26;91.90;;;44.30;;
24335;SDS011;33098;52.400;16.880;2023-03-01T04:40:54;92.00;;;44.20;;
24335;SDS011;33098;52.400;16.880;2023-03-01T04:43:20;88.70;;;43.60;;
24335;SDS011;33098;52.400;16.880;2023-03-01T04:45:50;89.30;;;43.60;;
24335;SDS011;33098;52.400;16.880;2023-03-01T04:48:18;87.30;;;43.10;;
24335;SDS011;33098;52.400;16.880;2023-03-01T04:50:48;87.90;;;44.00;;
24335;SDS011;33098;52.400;16.880;2023-03-01T04:53:15;90.10;;;44.80;;
24335;SDS011;33098;52.400;16.880;2023-03-01T04:55:42;90.90;;;44.00;;
24335;SDS011;33098;52.400;16.880;2023-03-01T04:58:09;89.80;;;44.70;;
24335;SDS011;33098;52.400;16.880;2023-03-01T05:03:15;98.70;;;45.50;;
24335;SDS011;33098;52.400;16.880;2023-03-01T05:05:45;94.90;;;45.00;;
24335;SDS011;33098;52.400;16.880;2023-03-01T05:08:17;92.00;;;44.80;;
24335;SDS011;33098;52.400;16.880;2023-03-01T05:10:45;87.50;;;43.80;;
24335;SDS011;33098;52.400;16.880;2023-03-01T05:13:16;92.40;;;45.00;;
24335;SDS011;33098;52.400;16.880;2023-03-01T05:15:54;94.80;;;45.10;;
24335;SDS011;33098;52.400;16.880;2023-03-01T05:18:24;88.90;;;45.50;;
24335;SDS011;33098;52.400;16.880;2023-03-01T05:20:53;89.50;;;43.40;;
24335;SDS011;33098;52.400;16.880;2023-03-01T05:23:22;89.90;;;44.90;;
24335;SDS011;33098;52.400;16.880;2023-03-01T05:25:49;96.20;;;46.10;;
24335;SDS011;33098;52.400;16.880;2023-03-01T05:28:22;92.70;;;46.00;;
24335;SDS011;33098;52.400;16.880;2023-03-01T05:30:53;93.00;;;44.00;;
24335;SDS011;33098;52.400;16.880;2023-03-01T05:33:21;90.90;;;46.20;;
24335;SDS011;33098;52.400;16.880;2023-03-01T05:35:53;90.30;;;44.10;;
24335;SDS011;33098;52.400;16.880;2023-03-01T05:38:23;90.10;;;44.90;;
24335;SDS011;33098;52.400;16.880;2023-03-01T05:40:55;86.60;;;43.20;;
24335;SDS011;33098;52.400;16.880;2023-03-01T05:43:24;83.70;;;44.40;;
24335;SDS011;33098;52.400;16.880;2023-03-01T05:45:52;90.30;;;43.50;;
24335;SDS011;33098;52.400;16.880;2023-03-01T05:48:19;85.30;;;43.80;;
24335;SDS011;33098;52.400;16.880;2023-03-01T05:50:52;95.20;;;45.50;;
24335;SDS011;33098;52.400;16.880;2023-03-01T05:53:22;65.60;;;33.00;;
24335;SDS011;33098;52.400;16.880;2023-03-01T05:55:51;86.00;;;45.20;;
24335;SDS011;33098;52.400;16.880;2023-03-01T05:58:21;86.10;;;45.40;;
24335;SDS011;33098;52.400;16.880;2023-03-01T06:00:48;94.40;;;47.00;;
24335;SDS011;33098;52.400;16.880;2023-03-01T06:03:32;96.20;;;47.90;;
24335;SDS011;33098;52.400;16.880;2023-03-01T06:06:02;94.00;;;46.50;;
24335;SDS011;33098;52.400;16.880;2023-03-01T06:08:32;97.10;;;46.60;;
24335;SDS011;33098;52.400;16.880;2023-03-01T06:10:59;93.90;;;45.90;;
24335;SDS011;33098;52.400;16.880;2023-03-01T06:13:26;96.50;;;46.00;;
24335;SDS011;33098;52.400;16.880;2023-03-01T06:15:54;93.50;;;44.20;;
24335;SDS011;33098;52.400;16.880;2023-03-01T06:18:22;89.30;;;44.70;;
24335;SDS011;33098;52.400;16.880;2023-03-01T06:20:54;94.90;;;45.50;;
24335;SDS011;33098;52.400;16.880;2023-03-01T06:23:25;90.00;;;43.80;;
24335;SDS011;33098;52.400;16.880;2023-03-01T06:26:04;83.30;;;43.40;;
24335;SDS011;33098;52.400;16.880;2023-03-01T06:28:33;87.70;;;43.40;;
24335;SDS011;33098;52.400;16.880;2023-03-01T06:31:01;82.40;;;43.00;;
24335;SDS011;33098;52.400;16.880;2023-03-01T06:33:35;82.90;;;43.40;;
24335;SDS011;33098;52.400;16.880;2023-03-01T06:36:02;81.80;;;42.10;;
24335;SDS011;33098;52.400;16.880;2023-03-01T06:38:29;83.80;;;42.30;;
24335;SDS011;33098;52.400;16.880;2023-03-01T06:41:02;78.10;;;40.90;;
24335;SDS011;33098;52.400;16.880;2023-03-01T06:43:35;82.00;;;40.80;;
24335;SDS011;33098;52.400;16.880;2023-03-01T06:46:04;78.70;;;41.00;;
24335;SDS011;33098;52.400;16.880;2023-03-01T06:48:33;77.10;;;39.30;;
24335;SDS011;33098;52.400;16.880;2023-03-01T06:51:01;80.90;;;40.80;;
24335;SDS011;33098;52.400;16.880;2023-03-01T06:53:30;77.60;;;39.10;;
24335;SDS011;33098;52.400;16.880;2023-03-01T06:56:00;72.60;;;38.70;;
24335;SDS011;33098;52.400;16.880;2023-03-01T06:58:27;79.50;;;39.50;;
24335;SDS011;33098;52.400;16.880;2023-03-01T07:00:57;68.00;;;37.60;;
24335;SDS011;33098;52.400;16.880;2023-03-01T07:03:23;71.70;;;38.80;;
24335;SDS011;33098;52.400;16.880;2023-03-01T07:05:54;69.40;;;37.20;;
24335;SDS011;33098;52.400;16.880;2023-03-01T07:08:23;70.30;;;37.20;;
24335;SDS011;33098;52.400;16.880;2023-03-01T07:10:56;67.40;;;36.60;;
24335;SDS011;33098;52.400;16.880;2023-03-01T07:13:27;66.50;;;35.70;;
24335;SDS011;33098;52.400;16.880;2023-03-01T07:15:56;68.20;;;35.40;;
24335;SDS011;33098;52.400;16.880;2023-03-01T07:18:23;67.60;;;35.40;;
24335;SDS011;33098;52.400;16.880;2023-03-01T07:20:50;66.40;;;34.50;;
24335;SDS011;33098;52.400;16.880;2023-03-01T07:23:17;59.80;;;30.80;;
24335;SDS011;33098;52.400;16.880;2023-03-01T07:25:52;51.20;;;28.10;;
24335;SDS011;33098;52.400;16.880;2023-03-01T07:28:24;51.80;;;28.10;;
24335;SDS011;33098;52.400;16.880;2023-03-01T07:30:51;48.00;;;27.10;;
24335;SDS011;33098;52.400;16.880;2023-03-01T07:33:21;53.80;;;27.90;;
24335;SDS011;33098;52.400;16.880;2023-03-01T07:35:48;49.10;;;28.00;;
24335;SDS011;33098;52.400;16.880;2023-03-01T07:38:32;52.70;;;27.70;;
24335;SDS011;33098;52.400;16.880;2023-03-01T07:40:59;47.10;;;26.50;;
24335;SDS011;33098;52.400;16.880;2023-03-01T07:43:36;53.90;;;28.00;;
24335;SDS011;33098;52.400;16.880;2023-03-01T07:46:03;49.10;;;28.10;;
24335;SDS011;33098;52.400;16.880;2023-03-01T07:51:03;60.00;;;30.00;;
24335;SDS011;33098;52.400;16.880;2023-03-01T07:53:38;52.30;;;28.20;;
24335;SDS011;33098;52.400;16.880;2023-03-01T07:56:10;50.20;;;27.40;;
24335;SDS011;33098;52.400;16.880;2023-03-01T07:58:40;55.10;;;27.60;;
24335;SDS011;33098;52.400;16.880;2023-03-01T08:01:09;63.70;;;31.90;;
24335;SDS011;33098;52.400;16.880;2023-03-01T08:03:42;49.00;;;26.50;;
24335;SDS011;33098;52.400;16.880;2023-03-01T08:06:11;51.90;;;27.90;;
24335;SDS011;33098;52.400;16.880;2023-03-01T08:08:40;52.00;;;27.40;;
24335;SDS011;33098;52.400;16.880;2023-03-01T08:11:10;50.60;;;27.10;;
24335;SDS011;33098;52.400;16.880;2023-03-01T08:13:47;50.60;;;27.60;;
24335;SDS011;33098;52.400;16.880;2023-03-01T08:16:21;52.20;;;25.80;;
24335;SDS011;33098;52.400;16.880;2023-03-01T08:18:52;44.60;;;24.20;;
24335;SDS011;33098;52.400;16.880;2023-03-01T08:21:22;47.70;;;24.60;;
24335;SDS011;33098;52.400;16.880;2023-03-01T08:23:58;43.00;;;22.40;;
24335;SDS011;33098;52.400;16.880;2023-03-01T08:26:25;39.90;;;22.30;;
24335;SDS011;33098;52.400;16.880;2023-03-01T08:28:55;36.70;;;20.60;;
24335;SDS011;33098;52.400;16.880;2023-03-01T08:34:01;42.60;;;20.80;;
24335;SDS011;33098;52.400;16.880;2023-03-01T08:36:32;42.90;;;23.30;;
24335;SDS011;33098;52.400;16.880;2023-03-01T08:39:08;42.20;;;21.70;;
24335;SDS011;33098;52.400;16.880;2023-03-01T08:41:43;44.90;;;22.80;;
24335;SDS011;33098;52.400;16.880;2023-03-01T08:44:11;39.00;;;22.50;;
24335;SDS011;33098;52.400;16.880;2023-03-01T08:46:40;39.20;;;20.10;;
24335;SDS011;33098;52.400;16.880;2023-03-01T08:49:13;35.10;;;20.40;;
24335;SDS011;33098;52.400;16.880;2023-03-01T08:51:42;37.00;;;17.90;;
24335;SDS011;33098;52.400;16.880;2023-03-01T08:54:12;28.90;;;15.50;;
24335;SDS011;33098;52.400;16.880;2023-03-01T08:56:42;21.60;;;12.10;;
24335;SDS011;33098;52.400;16.880;2023-03-01T08:59:12;22.50;;;10.60;;
24335;SDS011;33098;52.400;16.880;2023-03-01T09:01:42;19.40;;;11.70;;
24335;SDS011;33098;52.400;16.880;2023-03-01T09:04:11;23.60;;;10.70;;
24335;SDS011;33098;52.400;16.880;2023-03-01T09:06:46;25.90;;;11.90;;
24335;SDS011;33098;52.400;16.880;2023-03-01T09:09:17;26.20;;;13.30;;
24335;SDS011;33098;52.400;16.880;2023-03-01T09:11:44;22.00;;;12.60;;
24335;SDS011;33098;52.400;16.880;2023-03-01T09:14:13;19.20;;;10.90;;
24335;SDS011;33098;52.400;16.880;2023-03-01T09:16:44;17.70;;;10.60;;
24335;SDS011;33098;52.400;16.880;2023-03-01T09:19:20;21.00;;;11.80;;
24335;SDS011;33098;52.400;16.880;2023-03-01T09:21:49;23.50;;;12.50;;
24335;SDS011;33098;52.400;16.880;2023-03-01T09:24:20;24.40;;;12.50;;
24335;SDS011;33098;52.400;16.880;2023-03-01T09:26:54;21.80;;;12.00;;
24335;SDS011;33098;52.400;16.880;2023-03-01T09:31:54;18.40;;;10.10;;
24335;SDS011;33098;52.400;16.880;2023-03-01T09:34:22;20.30;;;10.70;;
24335;SDS011;33098;52.400;16.880;2023-03-01T09:36:52;18.40;;;10.30;;
24335;SDS011;33098;52.400;16.880;2023-03-01T09:39:23;16.10;;;9.40;;
24335;SDS011;33098;52.400;16.880;2023-03-01T09:42:00;17.00;;;9.20;;
24335;SDS011;33098;52.400;16.880;2023-03-01T09:44:53;14.60;;;9.00;;
24335;SDS011;33098;52.400;16.880;2023-03-01T09:47:53;18.00;;;8.90;;
24335;SDS011;33098;52.400;16.880;2023-03-01T09:50:28;15.40;;;7.90;;
24335;SDS011;33098;52.400;16.880;2023-03-01T09:53:13;12.60;;;7.60;;
24335;SDS011;33098;52.400;16.880;2023-03-01T09:56:29;15.70;;;8.50;;
24335;SDS011;33098;52.400;16.880;2023-03-01T10:01:38;12.80;;;7.20;;
24335;SDS011;33098;52.400;16.880;2023-03-01T10:04:28;14.20;;;8.20;;
24335;SDS011;33098;52.400;16.880;2023-03-01T10:09:53;17.60;;;8.60;;
24335;SDS011;33098;52.400;16.880;2023-03-01T10:12:25;14.40;;;8.20;;
24335;SDS011;33098;52.400;16.880;2023-03-01T10:15:05;16.00;;;7.30;;
24335;SDS011;33098;52.400;16.880;2023-03-01T10:17:46;14.50;;;7.50;;
24335;SDS011;33098;52.400;16.880;2023-03-01T10:20:41;15.80;;;8.10;;
24335;SDS011;33098;52.400;16.880;2023-03-01T10:23:11;14.50;;;7.80;;
24335;SDS011;33098;52.400;16.880;2023-03-01T10:34:33;12.70;;;7.20;;
24335;SDS011;33098;52.400;16.880;2023-03-01T10:42:33;8.80;;;4.80;;
24335;SDS011;33098;52.400;16.880;2023-03-01T10:45:50;10.30;;;5.20;;
24335;SDS011;33098;52.400;16.880;2023-03-01T10:50:40;7.20;;;3.70;;
24335;SDS011;33098;52.400;16.880;2023-03-01T10:55:56;7.80;;;4.60;;
24335;SDS011;33098;52.400;16.880;2023-03-01T10:58:34;8.80;;;5.00;;
24335;SDS011;33098;52.400;16.880;2023-03-01T11:01:05;8.90;;;5.00;;
24335;SDS011;33098;52.400;16.880;2023-03-01T11:03:41;6.60;;;4.50;;
24335;SDS011;33098;52.400;16.880;2023-03-01T11:06:24;11.20;;;4.90;;
24335;SDS011;33098;52.400;16.880;2023-03-01T11:08:57;8.40;;;4.20;;
24335;SDS011;33098;52.400;16.880;2023-03-01T11:11:54;7.70;;;4.30;;
24335;SDS011;33098;52.400;16.880;2023-03-01T11:14:26;12.40;;;4.80;;
24335;SDS011;33098;52.400;16.880;2023-03-01T11:16:59;11.50;;;5.10;;
24335;SDS011;33098;52.400;16.880;2023-03-01T11:19:29;7.70;;;4.90;;
24335;SDS011;33098;52.400;16.880;2023-03-01T11:22:01;6.60;;;4.10;;
24335;SDS011;33098;52.400;16.880;2023-03-01T11:24:49;9.00;;;4.80;;
24335;SDS011;33098;52.400;16.880;2023-03-01T11:27:33;13.10;;;4.90;;
24335;SDS011;33098;52.400;16.880;2023-03-01T11:33:37;8.20;;;5.50;;
24335;SDS011;33098;52.400;16.880;2023-03-01T11:38:50;8.90;;;5.90;;
24335;SDS011;33098;52.400;16.880;2023-03-01T11:41:28;7.70;;;4.80;;
24335;SDS011;33098;52.400;16.880;2023-03-01T11:55:29;7.70;;;5.70;;
24335;SDS011;33098;52.400;16.880;2023-03-01T11:58:03;9.70;;;5.90;;
24335;SDS011;33098;52.400;16.880;2023-03-01T12:06:55;9.30;;;6.20;;
24335;SDS011;33098;52.400;16.880;2023-03-01T12:09:31;10.80;;;6.30;;
24335;SDS011;33098;52.400;16.880;2023-03-01T12:12:24;11.80;;;5.80;;
24335;SDS011;33098;52.400;16.880;2023-03-01T12:24:01;9.90;;;6.60;;
24335;SDS011;33098;52.400;16.880;2023-03-01T12:27:18;9.70;;;6.50;;
24335;SDS011;33098;52.400;16.880;2023-03-01T12:33:00;10.20;;;7.10;;
24335;SDS011;33098;52.400;16.880;2023-03-01T12:36:02;9.00;;;5.80;;
24335;SDS011;33098;52.400;16.880;2023-03-01T12:38:48;10.60;;;6.10;;
24335;SDS011;33098;52.400;16.880;2023-03-01T12:49:26;9.80;;;5.80;;
24335;SDS011;33098;52.400;16.880;2023-03-01T12:51:59;10.20;;;6.00;;
24335;SDS011;33098;52.400;16.880;2023-03-01T12:54:41;11.00;;;5.60;;
24335;SDS011;33098;52.400;16.880;2023-03-01T12:57:17;10.30;;;5.80;;
24335;SDS011;33098;52.400;16.880;2023-03-01T13:05:34;11.10;;;6.20;;
24335;SDS011;33098;52.400;16.880;2023-03-01T13:11:33;9.00;;;5.80;;
24335;SDS011;33098;52.400;16.880;2023-03-01T13:13:46;6.30;;;4.90;;
24335;SDS011;33098;52.400;16.880;2023-03-01T13:19:08;7.90;;;5.00;;
24335;SDS011;33098;52.400;16.880;2023-03-01T13:21:37;8.40;;;5.20;;
24335;SDS011;33098;52.400;16.880;2023-03-01T13:27:08;9.10;;;5.90;;
24335;SDS011;33098;52.400;16.880;2023-03-01T13:29:48;10.00;;;5.60;;
24335;SDS011;33098;52.400;16.880;2023-03-01T13:32:19;9.00;;;5.20;;
24335;SDS011;33098;52.400;16.880;2023-03-01T13:35:19;9.10;;;5.70;;
24335;SDS011;33098;52.400;16.880;2023-03-01T13:37:42;9.40;;;5.30;;
24335;SDS011;33098;52.400;16.880;2023-03-01T13:42:52;9.70;;;5.70;;
24335;SDS011;33098;52.400;16.880;2023-03-01T13:48:10;8.30;;;5.90;;
24335;SDS011;33098;52.400;16.880;2023-03-01T13:50:45;8.30;;;6.10;;
24335;SDS011;33098;52.400;16.880;2023-03-01T13:53:19;11.00;;;6.80;;
24335;SDS011;33098;52.400;16.880;2023-03-01T13:55:51;8.90;;;5.70;;
24335;SDS011;33098;52.400;16.880;2023-03-01T13:58:33;8.20;;;5.60;;
24335;SDS011;33098;52.400;16.880;2023-03-01T14:03:52;20.60;;;7.50;;
24335;SDS011;33098;52.400;16.880;2023-03-01T14:09:14;9.40;;;6.00;;
24335;SDS011;33098;52.400;16.880;2023-03-01T14:22:53;9.80;;;6.00;;
24335;SDS011;33098;52.400;16.880;2023-03-01T14:25:25;10.30;;;6.00;;
24335;SDS011;33098;52.400;16.880;2023-03-01T14:28:00;12.60;;;6.30;;
24335;SDS011;33098;52.400;16.880;2023-03-01T14:30:34;9.80;;;6.30;;
24335;SDS011;33098;52.400;16.880;2023-03-01T14:33:21;8.60;;;5.40;;
24335;SDS011;33098;52.400;16.880;2023-03-01T14:38:32;7.40;;;5.00;;
24335;SDS011;33098;52.400;16.880;2023-03-01T14:41:05;10.20;;;6.10;;
24335;SDS011;33098;52.400;16.880;2023-03-01T14:43:46;10.20;;;6.00;;
24335;SDS011;33098;52.400;16.880;2023-03-01T14:49:08;9.30;;;5.80;;
24335;SDS011;33098;52.400;16.880;2023-03-01T14:51:39;10.60;;;6.30;;
24335;SDS011;33098;52.400;16.880;2023-03-01T14:54:23;9.50;;;6.40;;
24335;SDS011;33098;52.400;16.880;2023-03-01T14:56:59;10.20;;;6.20;;
24335;SDS011;33098;52.400;16.880;2023-03-01T14:59:27;9.50;;;6.10;;
24335;SDS011;33098;52.400;16.880;2023-03-01T15:02:00;9.90;;;6.00;;
24335;SDS011;33098;52.400;16.880;2023-03-01T15:04:39;12.20;;;6.20;;
24335;SDS011;33098;52.400;16.880;2023-03-01T15:07:14;16.00;;;6.50;;
24335;SDS011;33098;52.400;16.880;2023-03-01T15:12:25;10.60;;;5.90;;
24335;SDS011;33098;52.400;16.880;2023-03-01T15:14:57;11.40;;;5.70;;
24335;SDS011;33098;52.400;16.880;2023-03-01T15:17:37;9.90;;;6.10;;
24335;SDS011;33098;52.400;16.880;2023-03-01T15:20:18;11.90;;;6.70;;
24335;SDS011;33098;52.400;16.880;2023-03-01T15:22:48;10.50;;;5.90;;
24335;SDS011;33098;52.400;16.880;2023-03-01T15:25:16;9.60;;;6.20;;
24335;SDS011;33098;52.400;16.880;2023-03-01T15:27:48;12.30;;;6.00;;
24335;SDS011;33098;52.400;16.880;2023-03-01T15:30:22;8.80;;;6.20;;
24335;SDS011;33098;52.400;16.880;2023-03-01T15:35:50;10.80;;;6.60;;
24335;SDS011;33098;52.400;16.880;2023-03-01T15:38:25;11.90;;;6.50;;
24335;SDS011;33098;52.400;16.880;2023-03-01T15:40:58;11.20;;;6.60;;
24335;SDS011;33098;52.400;16.880;2023-03-01T15:43:40;11.00;;;6.40;;
24335;SDS011;33098;52.400;16.880;2023-03-01T15:49:03;9.80;;;6.40;;
24335;SDS011;33098;52.400;16.880;2023-03-01T15:51:54;9.80;;;6.30;;
24335;SDS011;33098;52.400;16.880;2023-03-01T15:54:22;13.40;;;6.40;;
24335;SDS011;33098;52.400;16.880;2023-03-01T15:56:52;11.80;;;7.00;;
24335;SDS011;33098;52.400;16.880;2023-03-01T15:59:19;9.90;;;6.00;;
24335;SDS011;33098;52.400;16.880;2023-03-01T16:01:49;11.80;;;6.80;;
24335;SDS011;33098;52.400;16.880;2023-03-01T16:04:21;10.60;;;6.10;;
24335;SDS011;33098;52.400;16.880;2023-03-01T16:06:52;11.10;;;6.90;;
24335;SDS011;33098;52.400;16.880;2023-03-01T16:09:25;11.60;;;7.00;;
24335;SDS011;33098;52.400;16.880;2023-03-01T16:11:53;9.30;;;6.30;;
24335;SDS011;33098;52.400;16.880;2023-03-01T16:14:20;9.90;;;6.30;;
24335;SDS011;33098;52.400;16.880;2023-03-01T16:16:48;13.30;;;7.00;;
24335;SDS011;33098;52.400;16.880;2023-03-01T16:19:14;10.90;;;6.90;;
24335;SDS011;33098;52.400;16.880;2023-03-01T16:21:42;11.40;;;7.00;;
24335;SDS011;33098;52.400;16.880;2023-03-01T16:24:16;11.90;;;7.10;;
24335;SDS011;33098;52.400;16.880;2023-03-01T16:26:43;11.90;;;7.00;;
24335;SDS011;33098;52.400;16.880;2023-03-01T16:29:11;13.50;;;8.70;;
24335;SDS011;33098;52.400;16.880;2023-03-01T16:31:40;17.00;;;9.40;;
24335;SDS011;33098;52.400;16.880;2023-03-01T16:34:07;22.80;;;11.40;;
24335;SDS011;33098;52.400;16.880;2023-03-01T16:36:34;19.90;;;12.20;;
24335;SDS011;33098;52.400;16.880;2023-03-01T16:39:01;19.70;;;11.70;;
24335;SDS011;33098;52.400;16.880;2023-03-01T16:41:29;17.50;;;11.10;;
24335;SDS011;33098;52.400;16.880;2023-03-01T16:43:57;19.40;;;10.70;;
24335;SDS011;33098;52.400;16.880;2023-03-01T16:46:26;15.60;;;10.00;;
24335;SDS011;33098;52.400;16.880;2023-03-01T16:48:56;16.30;;;9.80;;
24335;SDS011;33098;52.400;16.880;2023-03-01T16:51:24;17.00;;;10.40;;
24335;SDS011;33098;52.400;16.880;2023-03-01T16:53:51;16.50;;;9.60;;
24335;SDS011;33098;52.400;16.880;2023-03-01T16:56:19;15.80;;;9.80;;
24335;SDS011;33098;52.400;16.880;2023-03-01T16:58:46;19.30;;;10.70;;
24335;SDS011;33098;52.400;16.880;2023-03-01T17:01:17;17.90;;;10.40;;
24335;SDS011;33098;52.400;16.880;2023-03-01T17:03:46;20.80;;;11.00;;
24335;SDS011;33098;52.400;16.880;2023-03-01T17:06:14;17.50;;;10.30;;
24335;SDS011;33098;52.400;16.880;2023-03-01T17:08:53;26.40;;;10.20;;